Time;durP1;ratioP1;P1;durP2;ratioP2;P2;SDS_P1;SDS_P2;PMS_P1;PMS_P2;Temp;Humidity;BMP_temperature;BMP_pressure;BME280_temperature;BME280_humidity;BME280_pressure;Samples;Min_cycle;Max_cycle;Signal;HPM_P1;HPM_P2
2022/06/19 00:02:17;;;;;;;10.07;2.30;;;28.30;53.60;;;;;;4974916;28;20595;-73
2022/06/19 00:04:50;;;;;;;8.37;3.27;;;28.20;53.70;;;;;;4990542;28;20638;-73
2022/06/19 00:07:16;;;;;;;11.67;3.60;;;28.20;53.80;;;;;;4975444;28;20665;-73
2022/06/19 00:09:42;;;;;;;7.53;2.90;;;28.20;53.90;;;;;;4974815;28;20948;-73
2022/06/19 00:12:08;;;;;;;10.07;2.90;;;28.20;53.80;;;;;;4975015;28;20615;-73
2022/06/19 00:14:34;;;;;;;9.20;2.73;;;28.10;53.80;;;;;;4985998;28;20648;-73
2022/06/19 00:17:01;;;;;;;8.00;3.53;;;28.10;53.90;;;;;;4973832;28;20622;-72
2022/06/19 00:19:27;;;;;;;9.00;3.27;;;28.10;54.10;;;;;;4975092;28;20604;-73
2022/06/19 00:21:53;;;;;;;6.90;3.20;;;28.00;54.10;;;;;;4974560;28;20649;-73
2022/06/19 00:24:19;;;;;;;5.70;2.80;;;28.00;54.20;;;;;;4975439;28;21181;-73
2022/06/19 00:26:45;;;;;;;7.60;2.70;;;27.90;54.40;;;;;;4975084;28;21011;-73
2022/06/19 00:29:10;;;;;;;11.80;3.57;;;27.90;54.50;;;;;;4990184;28;20172;-73
2022/06/19 00:31:36;;;;;;;6.87;3.30;;;27.80;54.50;;;;;;4973951;28;20171;-73
2022/06/19 00:34:03;;;;;;;8.53;3.10;;;27.70;54.60;;;;;;4975169;28;20172;-73
2022/06/19 00:36:29;;;;;;;7.40;2.97;;;27.60;54.60;;;;;;4975061;28;20561;-73
2022/06/19 00:38:55;;;;;;;7.13;3.20;;;27.60;54.70;;;;;;4975015;28;20567;-73
2022/06/19 00:41:22;;;;;;;13.70;3.43;;;27.50;54.90;;;;;;4974184;28;20180;-73
2022/06/19 00:44:04;;;;;;;6.17;3.43;;;27.40;55.00;;;;;;4974744;28;20658;-73
2022/06/19 00:47:14;;;;;;;9.27;3.50;;;27.40;55.30;;;;;;4974782;28;20621;-73
2022/06/19 00:50:03;;;;;;;6.60;2.60;;;27.30;55.30;;;;;;4895801;29;20593;-73
2022/06/19 00:52:37;;;;;;;9.53;3.60;;;27.30;55.50;;;;;;4989296;28;20643;-73
2022/06/19 00:55:06;;;;;;;7.20;3.37;;;27.30;55.70;;;;;;4974769;28;20570;-73
2022/06/19 00:57:36;;;;;;;11.30;3.53;;;27.20;55.70;;;;;;4974044;28;20924;-73
2022/06/19 01:00:14;;;;;;;7.30;3.10;;;27.20;55.90;;;;;;4974279;28;21033;-73
2022/06/19 01:02:42;;;;;;;10.60;3.80;;;27.10;56.20;;;;;;4974047;28;20970;-72
2022/06/19 01:05:11;;;;;;;9.70;3.50;;;27.00;56.10;;;;;;4989219;28;21158;-72
2022/06/19 01:07:39;;;;;;;5.30;3.10;;;27.00;56.50;;;;;;4974275;28;20625;-72
2022/06/19 01:10:05;;;;;;;9.10;3.40;;;26.90;56.60;;;;;;4974037;28;20879;-72
2022/06/19 01:12:31;;;;;;;7.80;3.43;;;26.80;56.70;;;;;;4973709;28;20599;-73
2022/06/19 01:15:01;;;;;;;6.97;4.07;;;26.80;57.00;;;;;;4974228;28;20621;-73
2022/06/19 01:17:29;;;;;;;11.73;4.03;;;26.70;57.30;;;;;;4974094;28;20514;-72
2022/06/19 01:19:55;;;;;;;19.30;4.23;;;26.60;57.30;;;;;;4974029;28;20944;-73
2022/06/19 01:22:43;;;;;;;8.13;3.30;;;26.50;57.50;;;;;;4973441;28;20598;-72
2022/06/19 01:25:11;;;;;;;10.93;4.40;;;26.60;58.00;;;;;;4973718;28;20218;-73
2022/06/19 01:30:29;;;;;;;8.00;3.20;;;26.60;58.40;;;;;;4971954;28;20579;-73
2022/06/19 01:32:57;;;;;;;8.30;3.20;;;26.60;58.40;;;;;;4973802;28;20615;-72
2022/06/19 01:35:24;;;;;;;6.90;3.50;;;26.60;58.60;;;;;;4973813;28;20610;-72
2022/06/19 01:37:51;;;;;;;8.67;3.50;;;26.60;58.60;;;;;;4973886;28;20562;-73
2022/06/19 01:40:23;;;;;;;5.60;2.63;;;26.60;58.60;;;;;;4973496;28;20672;-72
2022/06/19 01:42:50;;;;;;;7.47;3.70;;;26.60;58.80;;;;;;4973067;28;20647;-72
2022/06/19 01:45:17;;;;;;;6.57;2.87;;;26.60;58.80;;;;;;4973539;28;20591;-72
2022/06/19 01:47:43;;;;;;;6.20;2.80;;;26.60;58.90;;;;;;4972404;28;20548;-72
2022/06/19 01:50:13;;;;;;;10.63;2.37;;;26.50;58.90;;;;;;4972019;28;20940;-73
2022/06/19 01:52:39;;;;;;;10.30;3.40;;;26.50;59.10;;;;;;4987908;28;20603;-73
2022/06/19 01:55:09;;;;;;;6.30;2.40;;;26.50;59.10;;;;;;4973522;28;20567;-73
2022/06/19 01:57:39;;;;;;;12.77;3.03;;;26.50;59.30;;;;;;4973410;28;20567;-73
2022/06/19 02:00:09;;;;;;;11.43;2.70;;;26.40;59.40;;;;;;4973119;28;20572;-73
2022/06/19 02:02:39;;;;;;;11.20;3.47;;;26.50;59.70;;;;;;4972921;28;20950;-73
2022/06/19 02:05:06;;;;;;;9.07;2.87;;;26.50;59.80;;;;;;4972015;28;20571;-72
2022/06/19 02:07:32;;;;;;;8.30;3.10;;;26.50;59.80;;;;;;4972327;28;20614;-73
2022/06/19 02:10:00;;;;;;;7.57;2.23;;;26.50;59.80;;;;;;5000007;23;20663;-78
2022/06/19 02:12:28;;;;;;;3.80;2.00;;;26.50;59.90;;;;;;4971383;28;20572;-78
2022/06/19 02:14:54;;;;;;;7.70;3.43;;;26.50;59.90;;;;;;4989117;28;20618;-78
2022/06/19 02:17:32;;;;;;;5.50;3.10;;;26.60;60.00;;;;;;4986980;28;20594;-79
2022/06/19 02:19:58;;;;;;;10.13;3.10;;;26.60;60.00;;;;;;4975655;28;20594;-80
2022/06/19 02:22:24;;;;;;;8.90;2.77;;;26.60;59.90;;;;;;4994334;28;20567;-79
2022/06/19 02:24:50;;;;;;;10.23;3.40;;;26.60;60.10;;;;;;4994829;28;20578;-79
2022/06/19 02:27:16;;;;;;;8.73;4.07;;;26.50;60.20;;;;;;4995770;28;20622;-79
2022/06/19 02:29:43;;;;;;;8.10;2.57;;;26.50;60.30;;;;;;4994936;28;20191;-79
2022/06/19 02:32:25;;;;;;;9.83;3.00;;;26.50;60.70;;;;;;4978483;28;20574;-79
2022/06/19 02:34:51;;;;;;;5.93;2.63;;;26.40;61.20;;;;;;4979879;28;20579;-79
2022/06/19 02:37:25;;;;;;;10.90;2.50;;;26.40;61.00;;;;;;4979844;28;20582;-79
2022/06/19 02:39:56;;;;;;;12.50;2.97;;;26.30;61.40;;;;;;4995276;28;20685;-79
2022/06/19 02:42:32;;;;;;;10.27;3.10;;;26.20;61.50;;;;;;4977759;28;20591;-79
2022/06/19 02:45:02;;;;;;;8.67;2.30;;;26.20;62.10;;;;;;4995222;28;20574;-78
2022/06/19 02:47:31;;;;;;;7.27;2.30;;;26.10;62.00;;;;;;4955790;28;20642;-78
2022/06/19 02:49:57;;;;;;;7.73;2.90;;;26.10;62.20;;;;;;4987531;28;20653;-78
2022/06/19 02:52:23;;;;;;;5.60;2.83;;;26.10;62.50;;;;;;4945890;28;21061;-79
2022/06/19 02:54:48;;;;;;;6.83;2.47;;;26.00;62.80;;;;;;4972368;28;20179;-79
2022/06/19 02:57:16;;;;;;;6.47;2.73;;;26.00;63.30;;;;;;4991407;28;20599;-79
2022/06/19 02:59:42;;;;;;;6.17;2.90;;;26.00;63.70;;;;;;4973392;28;20219;-79
2022/06/19 03:02:09;;;;;;;9.23;3.30;;;26.00;64.10;;;;;;4988376;28;20578;-79
2022/06/19 03:04:37;;;;;;;9.37;2.90;;;25.90;64.50;;;;;;4971786;28;20692;-79
2022/06/19 03:07:03;;;;;;;8.90;4.33;;;25.90;65.20;;;;;;4953698;28;20645;-79
2022/06/19 03:09:29;;;;;;;7.73;3.97;;;25.80;66.80;;;;;;4983323;28;20606;-79
2022/06/19 03:11:55;;;;;;;7.03;4.20;;;25.70;68.40;;;;;;4950658;29;20770;-78
2022/06/19 03:14:21;;;;;;;8.27;3.97;;;25.70;69.30;;;;;;4951101;28;20565;-79
2022/06/19 03:16:47;;;;;;;5.40;3.60;;;25.60;70.10;;;;;;4976444;28;20559;-79
2022/06/19 03:19:13;;;;;;;5.93;4.53;;;25.50;71.00;;;;;;4961574;28;20230;-78
2022/06/19 03:21:40;;;;;;;10.33;5.87;;;25.40;72.70;;;;;;4976680;28;20176;-78
2022/06/19 03:24:06;;;;;;;6.50;4.80;;;25.30;75.40;;;;;;4944704;28;20579;-80
2022/06/19 03:26:32;;;;;;;6.60;4.10;;;25.10;76.10;;;;;;4967679;28;20658;-79
2022/06/19 03:28:58;;;;;;;3.93;3.40;;;24.90;77.80;;;;;;4982811;28;20598;-79
2022/06/19 03:31:26;;;;;;;7.27;4.43;;;24.80;78.90;;;;;;4969083;28;20191;-80
2022/06/19 03:33:52;;;;;;;6.40;3.90;;;24.60;80.30;;;;;;4981411;28;20576;-80
2022/06/19 03:36:19;;;;;;;6.27;3.90;;;24.50;81.40;;;;;;4982101;28;20564;-79
2022/06/19 03:38:45;;;;;;;3.90;3.00;;;24.30;82.70;;;;;;4967027;28;20593;-79
2022/06/19 03:41:11;;;;;;;5.47;2.80;;;24.20;84.00;;;;;;4962170;28;20701;-80
2022/06/19 03:43:37;;;;;;;2.83;2.37;;;24.10;86.30;;;;;;4948201;28;20691;-80
2022/06/19 03:46:12;;;;;;;2.83;1.90;;;23.90;86.90;;;;;;4961898;28;20203;-80
2022/06/19 03:48:43;;;;;;;3.97;1.67;;;23.70;88.00;;;;;;4982953;28;20570;-80
2022/06/19 03:51:09;;;;;;;2.50;1.53;;;23.60;88.50;;;;;;4980947;28;20603;-80
2022/06/19 03:53:36;;;;;;;6.00;1.33;;;23.40;89.60;;;;;;4984936;28;20567;-80
2022/06/19 03:56:02;;;;;;;7.23;1.87;;;23.20;89.50;;;;;;4968311;28;20606;-80
2022/06/19 03:58:46;;;;;;;5.73;1.43;;;23.00;89.80;;;;;;4962268;28;20638;-80
2022/06/19 04:01:16;;;;;;;3.60;1.83;;;22.90;90.20;;;;;;4944342;28;20602;-80
2022/06/19 04:03:43;;;;;;;3.20;1.70;;;22.70;90.50;;;;;;4959540;28;20604;-80
2022/06/19 04:06:10;;;;;;;3.90;2.40;;;22.60;90.50;;;;;;4943548;28;20701;-79
2022/06/19 04:08:37;;;;;;;3.93;1.10;;;22.40;90.70;;;;;;4964755;28;21158;-80
2022/06/19 04:11:04;;;;;;;4.20;1.10;;;22.20;90.90;;;;;;4977672;28;21245;-80
2022/06/19 04:13:32;;;;;;;3.93;1.30;;;22.10;91.10;;;;;;4960734;28;20940;-80
2022/06/19 04:15:58;;;;;;;3.00;1.43;;;22.00;91.40;;;;;;4983673;28;20564;-80
2022/06/19 04:18:25;;;;;;;4.90;1.30;;;21.90;91.90;;;;;;4967087;28;20614;-80
2022/06/19 04:20:51;;;;;;;4.70;1.13;;;21.70;92.00;;;;;;4967565;28;20203;-80
2022/06/19 04:23:17;;;;;;;3.83;1.10;;;21.60;92.20;;;;;;4985023;28;20590;-80
2022/06/19 04:25:44;;;;;;;4.43;1.57;;;21.50;92.30;;;;;;4984519;28;20741;-79
2022/06/19 04:28:10;;;;;;;3.13;1.23;;;21.40;92.70;;;;;;4962794;28;20215;-79
2022/06/19 04:30:37;;;;;;;4.83;1.40;;;21.20;92.80;;;;;;4941587;28;20599;-79
2022/06/19 04:33:03;;;;;;;4.50;1.53;;;21.20;93.00;;;;;;4959591;28;20662;-79
2022/06/19 04:35:29;;;;;;;4.40;1.30;;;21.10;93.10;;;;;;4976515;28;20890;-78
2022/06/19 04:37:55;;;;;;;5.63;1.57;;;21.10;93.30;;;;;;4959861;28;20582;-77
2022/06/19 04:40:21;;;;;;;3.90;1.10;;;21.00;93.40;;;;;;4961549;28;20614;-76
2022/06/19 04:42:47;;;;;;;3.90;1.30;;;20.90;93.40;;;;;;4977077;28;20174;-76
2022/06/19 04:45:12;;;;;;;2.77;1.10;;;20.90;93.60;;;;;;4983272;28;21217;-76
2022/06/19 04:47:39;;;;;;;5.73;1.37;;;20.80;93.60;;;;;;4979583;28;20199;-76
2022/06/19 04:50:06;;;;;;;2.77;1.07;;;20.80;93.70;;;;;;4980885;28;20599;-77
2022/06/19 04:52:32;;;;;;;6.87;1.63;;;20.80;93.80;;;;;;4979371;28;20618;-76
2022/06/19 04:54:57;;;;;;;7.77;1.50;;;20.80;94.00;;;;;;4978751;28;20567;-76
2022/06/19 04:57:23;;;;;;;3.40;0.90;;;20.80;93.90;;;;;;4944361;28;20915;-76
2022/06/19 04:59:49;;;;;;;6.67;1.20;;;20.80;93.90;;;;;;4978430;28;20249;-76
2022/06/19 05:02:15;;;;;;;6.03;1.50;;;20.80;93.90;;;;;;4976964;28;20223;-76
2022/06/19 05:04:40;;;;;;;4.53;1.30;;;20.80;93.80;;;;;;4981332;28;20172;-76
2022/06/19 05:07:07;;;;;;;5.80;2.03;;;20.80;93.80;;;;;;4983612;28;20209;-76
2022/06/19 05:09:33;;;;;;;3.60;0.90;;;20.80;93.80;;;;;;4984386;28;20203;-76
2022/06/19 05:11:58;;;;;;;6.73;1.50;;;20.80;93.90;;;;;;4986178;28;20626;-76
2022/06/19 05:14:24;;;;;;;4.40;1.50;;;20.90;93.90;;;;;;4985868;28;20199;-76
2022/06/19 05:16:50;;;;;;;8.27;2.10;;;20.90;94.10;;;;;;4985518;28;20186;-76
2022/06/19 05:19:16;;;;;;;7.30;2.00;;;21.00;93.70;;;;;;4982394;28;20640;-76
2022/06/19 05:21:41;;;;;;;5.10;1.17;;;21.00;93.70;;;;;;4981852;28;20659;-76
2022/06/19 05:24:08;;;;;;;4.53;1.13;;;21.10;93.80;;;;;;4980317;28;20168;-76
2022/06/19 05:26:35;;;;;;;5.40;1.87;;;21.10;93.50;;;;;;4979819;28;20212;-76
2022/06/19 05:29:02;;;;;;;5.10;1.50;;;21.10;93.30;;;;;;4960404;28;20953;-75
2022/06/19 05:31:29;;;;;;;3.73;1.40;;;21.10;93.10;;;;;;4978323;28;20599;-76
2022/06/19 05:33:56;;;;;;;7.57;1.30;;;21.10;93.00;;;;;;4963122;28;20567;-76
2022/06/19 05:36:22;;;;;;;7.03;1.70;;;21.20;93.00;;;;;;4980583;28;20571;-76
2022/06/19 05:38:50;;;;;;;5.13;1.10;;;21.20;92.90;;;;;;4978332;28;20572;-75
2022/06/19 05:41:16;;;;;;;3.73;1.23;;;21.30;93.00;;;;;;4961105;28;20650;-76
2022/06/19 05:43:41;;;;;;;7.43;1.63;;;21.40;93.10;;;;;;4960650;28;20571;-75
2022/06/19 05:46:15;;;;;;;6.70;2.73;;;21.60;93.40;;;;;;4978583;28;20263;-76
2022/06/19 05:48:42;;;;;;;10.20;1.70;;;21.90;93.30;;;;;;4978041;28;20579;-76
2022/06/19 05:51:10;;;;;;;6.63;1.60;;;22.30;93.40;;;;;;4975497;28;20600;-75
2022/06/19 05:53:41;;;;;;;4.43;1.40;;;22.70;93.30;;;;;;4974376;28;20575;-75
2022/06/19 05:56:08;;;;;;;8.70;1.73;;;23.30;93.30;;;;;;4974681;28;20957;-76
2022/06/19 05:58:34;;;;;;;5.93;1.20;;;24.00;93.30;;;;;;4946276;28;20582;-75
2022/06/19 06:01:02;;;;;;;9.10;2.60;;;24.70;93.00;;;;;;4974813;28;20599;-76
2022/06/19 06:03:28;;;;;;;5.70;1.53;;;25.30;92.60;;;;;;4975439;28;20563;-76
2022/06/19 06:06:03;;;;;;;3.17;1.10;;;26.00;92.10;;;;;;4975623;28;20658;-76
2022/06/19 06:08:30;;;;;;;5.27;1.57;;;26.50;90.70;;;;;;4974799;28;20571;-75
2022/06/19 06:10:56;;;;;;;5.13;1.13;;;27.10;88.30;;;;;;4973127;28;20615;-75
2022/06/19 06:13:22;;;;;;;4.60;1.27;;;27.50;86.40;;;;;;4974256;28;20567;-76
2022/06/19 06:15:49;;;;;;;4.50;1.53;;;27.90;84.80;;;;;;4956707;28;21185;-76
2022/06/19 06:18:15;;;;;;;3.23;1.47;;;28.50;84.10;;;;;;4974602;28;20636;-76
2022/06/19 06:20:42;;;;;;;5.03;1.80;;;28.90;81.90;;;;;;4955951;28;20623;-76
2022/06/19 06:23:08;;;;;;;4.20;1.90;;;29.40;80.70;;;;;;4956820;28;20633;-75
2022/06/19 06:25:35;;;;;;;5.90;1.57;;;30.00;79.10;;;;;;4974482;28;20571;-75
2022/06/19 06:28:01;;;;;;;3.17;1.33;;;30.40;76.40;;;;;;4973917;28;20594;-75
2022/06/19 06:30:27;;;;;;;5.23;1.30;;;30.90;75.80;;;;;;4974058;28;20591;-75
2022/06/19 06:32:53;;;;;;;5.00;1.63;;;31.20;72.80;;;;;;4974445;28;20663;-75
2022/06/19 06:35:18;;;;;;;4.30;1.20;;;31.50;70.50;;;;;;4960305;28;20644;-75
2022/06/19 06:37:44;;;;;;;6.70;1.60;;;31.80;69.50;;;;;;4973851;28;20169;-75
2022/06/19 06:40:11;;;;;;;5.27;1.50;;;32.20;68.20;;;;;;4974145;28;20184;-76
2022/06/19 06:42:37;;;;;;;4.20;1.07;;;32.50;67.80;;;;;;4972132;28;20260;-75
2022/06/19 06:45:07;;;;;;;2.80;1.00;;;33.00;66.30;;;;;;4955836;28;20578;-76
2022/06/19 06:47:33;;;;;;;4.40;1.30;;;33.40;64.70;;;;;;4973298;28;20630;-75
2022/06/19 06:49:58;;;;;;;6.73;1.90;;;33.80;62.80;;;;;;4955377;28;20615;-75
2022/06/19 06:52:24;;;;;;;4.93;1.30;;;34.10;60.00;;;;;;4949062;28;20179;-75
2022/06/19 06:54:50;;;;;;;3.00;1.57;;;34.30;59.10;;;;;;4948578;28;20172;-75
2022/06/19 06:57:16;;;;;;;6.00;1.70;;;34.60;58.50;;;;;;4964849;28;20603;-75
2022/06/19 06:59:41;;;;;;;5.10;1.40;;;34.90;57.60;;;;;;4965403;28;20202;-76
2022/06/19 07:02:07;;;;;;;3.43;1.00;;;35.00;56.00;;;;;;4965363;28;20263;-75
2022/06/19 07:04:33;;;;;;;4.60;1.50;;;35.10;55.40;;;;;;4967130;28;20186;-75
2022/06/19 07:06:59;;;;;;;4.20;1.43;;;35.10;54.70;;;;;;4966972;28;20237;-75
2022/06/19 07:09:24;;;;;;;5.90;1.27;;;34.90;53.60;;;;;;4963880;28;20182;-76
2022/06/19 07:11:50;;;;;;;4.63;1.30;;;34.60;52.80;;;;;;4964901;28;20189;-75
2022/06/19 07:14:18;;;;;;;4.00;1.93;;;34.20;52.30;;;;;;4960780;29;20542;-76
2022/06/19 07:16:43;;;;;;;3.17;1.07;;;33.90;52.00;;;;;;4960947;28;20174;-76
2022/06/19 07:19:10;;;;;;;4.47;1.30;;;33.70;52.20;;;;;;4960803;28;20608;-76
2022/06/19 07:21:36;;;;;;;4.80;1.53;;;33.60;52.30;;;;;;4959033;28;20177;-77
2022/06/19 07:24:02;;;;;;;3.23;1.20;;;33.70;52.50;;;;;;4959669;28;20585;-78
2022/06/19 07:26:29;;;;;;;7.17;1.97;;;33.90;52.50;;;;;;4960898;29;20625;-77
2022/06/19 07:28:55;;;;;;;5.33;1.40;;;34.10;52.20;;;;;;4961363;28;20592;-79
2022/06/19 07:31:21;;;;;;;5.67;1.63;;;34.30;51.40;;;;;;4951703;28;20629;-77
2022/06/19 07:33:47;;;;;;;6.47;2.03;;;34.30;50.70;;;;;;4959207;28;21173;-78
2022/06/19 07:36:18;;;;;;;4.37;1.37;;;34.10;49.80;;;;;;4968762;28;20187;-78
2022/06/19 07:38:44;;;;;;;8.50;2.27;;;33.90;49.90;;;;;;4970713;28;20573;-78
2022/06/19 07:41:09;;;;;;;11.87;2.70;;;33.50;48.40;;;;;;4973926;28;20634;-78
2022/06/19 07:43:36;;;;;;;10.77;2.60;;;32.90;48.20;;;;;;4967052;28;20588;-78
2022/06/19 07:46:02;;;;;;;9.20;2.50;;;32.40;48.60;;;;;;4949995;28;20575;-78
2022/06/19 07:51:12;;;;;;;4.33;1.47;;;31.30;48.80;;;;;;4958722;28;20541;-78
2022/06/19 07:53:37;;;;;;;6.07;2.30;;;30.90;49.50;;;;;;4959576;28;20569;-78
2022/06/19 07:56:03;;;;;;;7.17;3.00;;;30.80;50.20;;;;;;4957986;28;20185;-78
2022/06/19 07:58:29;;;;;;;5.30;2.53;;;30.80;50.80;;;;;;4959318;28;20182;-77
2022/06/19 08:00:56;;;;;;;12.57;2.20;;;31.00;51.20;;;;;;4954501;28;20614;-78
2022/06/19 08:03:22;;;;;;;5.53;1.80;;;31.40;51.60;;;;;;4931420;28;20696;-77
2022/06/19 08:05:48;;;;;;;7.27;1.90;;;31.80;51.60;;;;;;4958683;28;20620;-77
2022/06/19 08:08:19;;;;;;;10.27;2.77;;;32.20;50.80;;;;;;4940198;29;20763;-78
2022/06/19 08:10:50;;;;;;;5.70;1.87;;;32.60;50.00;;;;;;4985249;23;21360;-79
2022/06/19 08:13:21;;;;;;;6.73;1.63;;;33.00;49.80;;;;;;4961844;28;20591;-80
2022/06/19 08:15:52;;;;;;;8.47;1.70;;;33.40;49.00;;;;;;4950964;28;20610;-80
2022/06/19 08:18:18;;;;;;;7.70;1.80;;;33.60;48.00;;;;;;4965340;29;20646;-80
2022/06/19 08:20:45;;;;;;;4.13;1.70;;;33.80;47.60;;;;;;4966883;28;21226;-80
2022/06/19 08:23:13;;;;;;;4.13;1.90;;;34.00;47.20;;;;;;4953113;28;20613;-81
2022/06/19 08:25:39;;;;;;;6.20;2.03;;;34.20;47.40;;;;;;4964798;28;20932;-80
2022/06/19 08:28:06;;;;;;;6.00;1.40;;;34.40;47.00;;;;;;4926934;28;20603;-81
2022/06/19 08:30:36;;;;;;;4.70;1.70;;;34.60;46.40;;;;;;4958344;28;20673;-80
2022/06/19 08:33:04;;;;;;;5.93;1.60;;;34.90;45.70;;;;;;4959168;28;20622;-81
2022/06/19 08:35:34;;;;;;;7.10;2.20;;;35.10;45.10;;;;;;4948456;29;20642;-81
2022/06/19 08:38:07;;;;;;;5.03;1.47;;;35.20;43.90;;;;;;4926929;29;20607;-80
2022/06/19 08:41:10;;;;;;;7.30;1.60;;;35.20;43.80;;;;;;4951798;28;20626;-81
2022/06/19 08:44:07;;;;;;;7.13;1.43;;;35.30;43.30;;;;;;4953947;29;20586;-82
2022/06/19 08:46:54;;;;;;;3.23;1.40;;;35.40;43.40;;;;;;4935052;29;20973;-81
2022/06/19 08:49:23;;;;;;;4.20;1.30;;;35.60;43.50;;;;;;4955405;28;20662;-81
2022/06/19 08:52:15;;;;;;;3.83;1.20;;;35.70;43.10;;;;;;4948486;28;20622;-80
2022/06/19 08:54:41;;;;;;;3.43;1.33;;;35.80;42.30;;;;;;4952224;28;20595;-80
2022/06/19 08:57:29;;;;;;;5.30;1.40;;;35.70;42.40;;;;;;4940336;28;20614;-81
2022/06/19 09:00:12;;;;;;;3.40;1.10;;;35.70;42.30;;;;;;4928835;28;20253;-81
2022/06/19 09:03:14;;;;;;;5.13;1.50;;;35.70;41.90;;;;;;4957043;28;20598;-81
2022/06/19 09:05:58;;;;;;;4.83;2.20;;;35.50;42.00;;;;;;4923420;29;21127;-81
2022/06/19 09:08:51;;;;;;;4.40;1.43;;;35.30;41.60;;;;;;4945264;29;20636;-81
2022/06/19 09:11:32;;;;;;;5.03;1.43;;;34.90;42.10;;;;;;4961542;28;20651;-82
2022/06/19 09:14:15;;;;;;;4.97;1.47;;;34.50;41.40;;;;;;4939937;29;20603;-81
2022/06/19 09:16:56;;;;;;;3.63;1.20;;;34.10;41.40;;;;;;4960510;28;20607;-81
2022/06/19 09:19:59;;;;;;;4.83;1.70;;;33.50;41.60;;;;;;4967084;28;20584;-82
2022/06/19 09:22:28;;;;;;;6.30;1.50;;;32.90;42.40;;;;;;4965798;28;20599;-82
2022/06/19 09:24:57;;;;;;;3.73;1.30;;;32.50;42.30;;;;;;4952306;29;20991;-82
2022/06/19 09:27:34;;;;;;;10.47;1.70;;;32.00;42.70;;;;;;4958237;29;20635;-83
2022/06/19 09:30:04;;;;;;;6.63;1.80;;;31.70;43.30;;;;;;4940906;29;20615;-84
2022/06/19 09:32:40;;;;;;;9.63;1.77;;;31.50;43.40;;;;;;4955789;28;20604;-83
2022/06/19 09:35:41;;;;;;;5.07;1.50;;;31.20;43.90;;;;;;4957336;29;20626;-82
2022/06/19 09:38:13;;;;;;;6.90;2.07;;;31.00;44.40;;;;;;4941549;28;20701;-82
2022/06/19 09:40:43;;;;;;;5.93;1.63;;;30.90;44.30;;;;;;4961363;28;20646;-82
2022/06/19 09:43:15;;;;;;;4.27;1.40;;;30.80;44.50;;;;;;4962312;28;20592;-81
2022/06/19 09:45:58;;;;;;;4.00;1.40;;;30.70;45.10;;;;;;4944089;29;20572;-81
2022/06/19 09:48:40;;;;;;;6.10;2.03;;;30.70;45.50;;;;;;4962210;28;20592;-81
2022/06/19 09:51:31;;;;;;;5.77;1.37;;;30.90;46.20;;;;;;4959681;28;20601;-81
2022/06/19 09:54:18;;;;;;;5.70;1.47;;;31.00;45.90;;;;;;4937090;29;20642;-82
2022/06/19 09:57:09;;;;;;;3.63;1.20;;;31.20;45.50;;;;;;4951363;28;20576;-82
2022/06/19 09:59:47;;;;;;;6.37;2.17;;;31.20;45.60;;;;;;4953396;28;20588;-81
2022/06/19 10:02:45;;;;;;;5.60;1.60;;;31.40;45.80;;;;;;4953853;28;20686;-80
2022/06/19 10:05:20;;;;;;;5.60;2.03;;;31.50;45.40;;;;;;4915030;29;20686;-80
2022/06/19 10:07:56;;;;;;;9.03;1.90;;;31.70;45.40;;;;;;4920406;29;20761;-79
2022/06/19 10:10:57;;;;;;;5.73;1.90;;;31.80;45.00;;;;;;4903409;28;20604;-80
2022/06/19 10:14:07;;;;;;;5.50;1.43;;;31.50;44.60;;;;;;4899558;29;21177;-80
2022/06/19 10:16:49;;;;;;;6.33;2.30;;;31.20;44.50;;;;;;4858327;29;20616;-81
2022/06/19 10:19:39;;;;;;;7.53;2.03;;;30.60;44.10;;;;;;4951170;28;20603;-80
2022/06/19 10:22:26;;;;;;;5.93;2.60;;;29.80;44.90;;;;;;4953838;28;20639;-81
2022/06/19 10:25:29;;;;;;;9.83;3.30;;;29.00;45.80;;;;;;4936359;29;20664;-81
2022/06/19 10:28:11;;;;;;;9.80;3.10;;;28.10;47.50;;;;;;4940611;29;20615;-80
2022/06/19 10:30:56;;;;;;;6.83;2.53;;;27.40;48.10;;;;;;4938132;29;20946;-80
2022/06/19 10:33:28;;;;;;;5.70;2.70;;;26.90;48.30;;;;;;4940619;29;20561;-80
2022/06/19 10:36:13;;;;;;;9.93;2.70;;;26.50;49.40;;;;;;4959744;28;20612;-80
2022/06/19 10:39:01;;;;;;;7.80;3.00;;;26.20;49.80;;;;;;4938305;29;20591;-79
2022/06/19 10:42:06;;;;;;;7.70;3.70;;;26.30;50.90;;;;;;4944127;29;20596;-79
2022/06/19 10:45:28;;;;;;;7.07;2.67;;;26.40;51.40;;;;;;4951083;28;21181;-79
2022/06/19 10:48:17;;;;;;;8.23;2.83;;;26.90;52.00;;;;;;4916830;29;20631;-80
2022/06/19 10:50:47;;;;;;;5.17;2.73;;;27.60;52.20;;;;;;4947212;28;20706;-81
2022/06/19 10:53:37;;;;;;;8.00;2.80;;;28.20;51.50;;;;;;4937769;29;21194;-80
2022/06/19 10:56:21;;;;;;;5.50;2.80;;;28.40;50.90;;;;;;4955074;29;20615;-81
2022/06/19 10:58:46;;;;;;;7.90;3.20;;;28.60;50.40;;;;;;4949850;29;20659;-80
2022/06/19 11:04:06;;;;;;;5.73;2.80;;;28.80;50.10;;;;;;4934786;29;20982;-80
2022/06/19 11:04:09;;;;;;;6.13;3.03;;;28.80;50.00;;;;;;4952429;28;20255;-79
2022/06/19 11:06:55;;;;;;;4.67;2.40;;;28.90;49.80;;;;;;4953527;28;20623;-81
2022/06/19 11:09:30;;;;;;;6.07;2.33;;;28.80;49.50;;;;;;4953065;28;20598;-80
2022/06/19 11:12:01;;;;;;;6.07;2.50;;;28.80;49.60;;;;;;4956369;28;20642;-80
2022/06/19 11:14:27;;;;;;;6.63;3.37;;;28.70;49.40;;;;;;4953599;28;20575;-80
2022/06/19 11:16:56;;;;;;;11.37;3.40;;;28.60;49.40;;;;;;4934801;29;20592;-80
2022/06/19 11:19:36;;;;;;;8.27;3.03;;;28.50;49.50;;;;;;4945151;29;20188;-80
2022/06/19 11:22:06;;;;;;;6.90;3.57;;;28.40;49.70;;;;;;4952803;28;20691;-79
2022/06/19 11:24:36;;;;;;;10.97;3.80;;;28.30;49.80;;;;;;4955171;29;20557;-81
2022/06/19 11:27:02;;;;;;;6.70;2.33;;;28.20;50.20;;;;;;4956882;29;20707;-81
2022/06/19 11:29:29;;;;;;;8.67;2.87;;;28.20;50.70;;;;;;4955852;29;20915;-83
2022/06/19 11:32:09;;;;;;;7.00;2.40;;;28.40;51.30;;;;;;4937176;29;21274;-83
2022/06/19 11:34:43;;;;;;;6.90;2.60;;;28.60;51.50;;;;;;4954960;29;20588;-82
2022/06/19 11:37:21;;;;;;;7.27;3.57;;;28.90;51.50;;;;;;4956076;29;20584;-82
2022/06/19 11:39:52;;;;;;;4.93;2.80;;;29.10;51.30;;;;;;4954923;28;20591;-82
2022/06/19 11:42:30;;;;;;;5.17;2.40;;;29.30;51.10;;;;;;4925177;29;20646;-81
2022/06/19 11:45:16;;;;;;;7.53;2.90;;;29.50;51.20;;;;;;4942216;29;20959;-82
2022/06/19 11:47:58;;;;;;;7.57;2.70;;;29.80;51.10;;;;;;4960879;29;20642;-81
2022/06/19 11:50:31;;;;;;;5.27;2.37;;;30.10;50.90;;;;;;4962250;28;21153;-81
2022/06/19 11:53:09;;;;;;;6.13;2.93;;;30.30;50.40;;;;;;4958342;28;20585;-83
2022/06/19 11:56:11;;;;;;;9.30;4.40;;;30.30;49.90;;;;;;4957829;29;20576;-82
2022/06/19 11:58:46;;;;;;;10.33;5.73;;;30.40;49.90;;;;;;4941961;29;20572;-82
2022/06/19 12:01:16;;;;;;;7.00;5.00;;;30.50;50.40;;;;;;4956764;28;21058;-82
2022/06/19 12:03:57;;;;;;;8.70;4.40;;;30.60;50.40;;;;;;4940400;29;20671;-83
2022/06/19 12:06:48;;;;;;;7.13;2.83;;;30.80;50.20;;;;;;4958065;28;20719;-82
2022/06/19 12:09:23;;;;;;;5.13;2.00;;;30.90;49.90;;;;;;4959607;28;20583;-82
2022/06/19 12:12:06;;;;;;;5.40;2.60;;;31.00;49.80;;;;;;4958376;28;20631;-82
2022/06/19 12:15:09;;;;;;;8.17;3.30;;;31.10;49.70;;;;;;4959105;29;20563;-82
2022/06/19 12:17:39;;;;;;;7.77;2.73;;;31.20;49.30;;;;;;4942225;29;20766;-82
2022/06/19 12:20:05;;;;;;;6.10;2.23;;;31.20;49.20;;;;;;4957937;29;20568;-82
2022/06/19 12:22:44;;;;;;;7.23;2.20;;;31.20;48.90;;;;;;4956734;28;20658;-81
2022/06/19 12:25:39;;;;;;;6.03;2.00;;;31.00;48.80;;;;;;4960484;28;20176;-82
2022/06/19 12:28:34;;;;;;;7.30;2.70;;;31.00;48.90;;;;;;4915283;29;20616;-83
2022/06/19 12:31:08;;;;;;;4.90;2.10;;;30.90;49.00;;;;;;4944287;28;20618;-82
2022/06/19 12:33:52;;;;;;;5.10;1.93;;;30.90;49.30;;;;;;4948384;28;20599;-82
2022/06/19 12:36:30;;;;;;;6.20;2.60;;;30.90;50.00;;;;;;4959914;29;20576;-82
2022/06/19 12:38:56;;;;;;;6.30;2.07;;;30.80;49.10;;;;;;4960973;28;20931;-82
2022/06/19 12:41:37;;;;;;;6.37;2.30;;;30.90;49.60;;;;;;4957073;28;20619;-82
2022/06/19 12:44:03;;;;;;;6.30;1.80;;;30.90;49.40;;;;;;4964550;28;20190;-82
2022/06/19 12:46:35;;;;;;;6.50;2.03;;;30.80;48.90;;;;;;4940580;29;20643;-83
2022/06/19 12:49:19;;;;;;;8.77;3.00;;;30.60;48.60;;;;;;4941086;29;20184;-77
2022/06/19 12:52:15;;;;;;;6.27;2.73;;;30.40;48.40;;;;;;4953580;28;20683;-77
2022/06/19 12:54:53;;;;;;;4.47;2.57;;;30.10;48.40;;;;;;4915282;29;20576;-77
2022/06/19 12:58:00;;;;;;;5.63;1.80;;;29.90;48.60;;;;;;4937950;29;20577;-77
2022/06/19 13:00:47;;;;;;;7.63;2.70;;;29.70;48.70;;;;;;4857170;29;20687;-76
2022/06/19 13:03:21;;;;;;;5.40;1.63;;;29.50;48.90;;;;;;4863576;29;20589;-77
2022/06/19 13:06:00;;;;;;;7.90;2.20;;;29.30;48.70;;;;;;4922177;28;20584;-78
2022/06/19 13:08:45;;;;;;;5.67;1.70;;;29.10;49.00;;;;;;4955027;28;20569;-77
2022/06/19 13:11:41;;;;;;;4.07;1.43;;;29.00;49.30;;;;;;4953847;28;20623;-77
2022/06/19 13:14:26;;;;;;;5.50;1.87;;;28.80;49.80;;;;;;4954836;28;20556;-77
2022/06/19 13:17:23;;;;;;;8.10;2.13;;;28.80;49.70;;;;;;4954819;28;21226;-77
2022/06/19 13:19:55;;;;;;;10.73;2.87;;;28.70;50.20;;;;;;4954391;28;20602;-77